createdAt,value
2022-10-28T00:02:08.098Z,46.00
2022-10-28T00:07:11.472Z,40.40
2022-10-28T00:12:14.673Z,43.00
2022-10-28T00:22:20.986Z,41.10
2022-10-28T00:27:24.093Z,44.10
2022-10-28T00:32:31.499Z,40.10
2022-10-28T00:37:34.707Z,43.40
2022-10-28T00:47:56.848Z,39.20
2022-10-28T00:53:25.904Z,39.70
2022-10-28T00:58:30.240Z,38.70
2022-10-28T01:03:33.447Z,43.10
2022-10-28T01:14:16.932Z,43.80
2022-10-28T01:19:38.777Z,51.50
2022-10-28T01:25:12.808Z,53.10
2022-10-28T01:30:23.803Z,49.00
2022-10-28T01:35:37.655Z,48.90
2022-10-28T01:41:06.470Z,52.20
2022-10-28T01:46:22.062Z,46.90
2022-10-28T01:51:47.797Z,54.40
2022-10-28T01:56:53.565Z,48.30
2022-10-28T02:01:57.470Z,48.20
2022-10-28T02:07:01.622Z,43.10
2022-10-28T02:12:20.393Z,41.90
2022-10-28T02:18:01.080Z,45.40
2022-10-28T02:23:53.038Z,43.40
2022-10-28T02:29:01.947Z,42.40
2022-10-28T02:34:11.835Z,37.70
2022-10-28T02:39:16.807Z,42.80
2022-10-28T02:44:26.559Z,42.00
2022-10-28T02:49:32.109Z,45.90
2022-10-28T02:54:42.813Z,46.40
2022-10-28T02:59:54.723Z,41.50
2022-10-28T03:04:58.122Z,43.30
2022-10-28T03:10:01.252Z,40.80
2022-10-28T03:15:06.172Z,38.50
2022-10-28T03:20:10.197Z,36.70
2022-10-28T03:25:13.406Z,40.60
2022-10-28T03:35:21.874Z,40.60
2022-10-28T03:40:25.282Z,39.90
2022-10-28T03:50:36.409Z,37.50
2022-10-28T04:00:42.930Z,40.10
2022-10-28T04:05:48.684Z,43.40
2022-10-28T04:10:51.808Z,43.70
2022-10-28T04:15:55.416Z,42.10
2022-10-28T04:20:58.933Z,46.80
2022-10-28T04:26:02.142Z,45.60
2022-10-28T04:31:05.865Z,46.10
2022-10-28T04:36:09.377Z,46.90
2022-10-28T04:41:14.719Z,45.70
2022-10-28T04:46:17.951Z,48.20
2022-10-28T04:51:21.151Z,48.80
2022-10-28T04:56:25.179Z,46.50
2022-10-28T05:01:28.431Z,47.40
2022-10-28T05:06:31.617Z,50.40
2022-10-28T05:11:34.802Z,46.90
2022-10-28T05:16:37.909Z,48.20
2022-10-28T05:21:41.116Z,47.00
2022-10-28T05:31:47.531Z,47.40
2022-10-28T05:36:51.250Z,51.20
2022-10-28T05:41:54.357Z,51.10
2022-10-28T05:46:57.462Z,47.00
2022-10-28T05:52:00.776Z,50.60
2022-10-28T05:57:04.495Z,50.00
2022-10-28T06:02:15.187Z,48.00
2022-10-28T06:07:18.384Z,48.60
2022-10-28T06:17:24.089Z,46.90
2022-10-28T06:22:27.301Z,49.00
2022-10-28T06:32:34.135Z,46.30
2022-10-28T06:37:37.755Z,47.40
2022-10-28T06:42:40.972Z,47.20
2022-10-28T06:52:48.607Z,47.20
2022-10-28T06:57:52.052Z,52.00
2022-10-28T07:02:56.860Z,47.70
2022-10-28T07:08:00.181Z,49.00
2022-10-28T07:18:06.709Z,44.50
2022-10-28T07:28:13.437Z,44.80
2022-10-28T07:33:17.056Z,34.10
2022-10-28T07:38:20.268Z,28.80
2022-10-28T07:43:23.583Z,26.70
2022-10-28T07:48:26.783Z,19.90
2022-10-28T07:53:31.012Z,24.70
2022-10-28T07:58:34.422Z,34.70
2022-10-28T08:03:38.989Z,23.30
2022-10-28T08:08:42.462Z,23.80
2022-10-28T08:13:46.579Z,18.20
2022-10-28T08:18:49.677Z,19.50
2022-10-28T08:23:54.929Z,11.80
2022-10-28T08:28:58.656Z,10.80
2022-10-28T08:34:01.857Z,9.60
2022-10-28T08:39:05.166Z,8.80
2022-10-28T08:44:42.376Z,8.40
2022-10-28T08:49:49.354Z,14.60
2022-10-28T08:55:07.858Z,16.40
2022-10-28T09:00:20.210Z,9.70
2022-10-28T09:05:26.039Z,10.00
2022-10-28T09:10:51.768Z,9.00
2022-10-28T09:16:02.964Z,9.20
2022-10-28T09:21:15.388Z,10.10
2022-10-28T09:26:41.227Z,9.00
2022-10-28T09:31:50.372Z,9.60
2022-10-28T09:37:03.720Z,10.00
2022-10-28T09:42:10.920Z,11.40
2022-10-28T09:47:26.109Z,13.10
2022-10-28T09:52:40.290Z,13.50
2022-10-28T09:57:44.608Z,14.90
2022-10-28T10:02:48.714Z,15.30
2022-10-28T10:08:03.619Z,15.40
2022-10-28T10:13:08.597Z,14.50
2022-10-28T10:18:20.454Z,13.00
2022-10-28T10:23:33.985Z,12.20
2022-10-28T10:28:47.275Z,14.50
2022-10-28T10:33:53.912Z,15.60
2022-10-28T10:38:59.166Z,14.00
2022-10-28T10:44:02.889Z,14.50
2022-10-28T10:49:15.597Z,15.00
2022-10-28T10:54:19.597Z,16.10
2022-10-28T10:59:30.012Z,15.50
2022-10-28T11:04:37.072Z,15.90
2022-10-28T11:09:42.627Z,18.90
2022-10-28T11:14:58.279Z,17.80
2022-10-28T11:20:25.307Z,15.50
2022-10-28T11:25:47.153Z,15.60
2022-10-28T11:31:02.855Z,16.00
2022-10-28T11:36:23.461Z,16.00
2022-10-28T11:41:58.536Z,16.10
2022-10-28T11:47:34.698Z,15.30
2022-10-28T11:52:50.096Z,18.40
2022-10-28T11:58:02.187Z,17.50
2022-10-28T12:03:38.183Z,16.40
2022-10-28T12:09:01.516Z,14.30
2022-10-28T12:14:29.557Z,16.80
2022-10-28T12:19:44.232Z,18.30
2022-10-28T12:24:47.634Z,17.60
2022-10-28T12:29:56.283Z,21.90
2022-10-28T12:35:10.233Z,20.10
2022-10-28T12:40:28.517Z,17.80
2022-10-28T12:45:32.832Z,17.60
2022-10-28T12:50:46.999Z,16.40
2022-10-28T12:56:00.075Z,18.40
2022-10-28T13:01:16.223Z,16.40
2022-10-28T13:06:47.208Z,16.80
2022-10-28T13:12:26.365Z,18.30
2022-10-28T13:17:48.099Z,16.90
2022-10-28T13:23:11.381Z,19.20
2022-10-28T13:28:18.582Z,16.30
2022-10-28T13:33:26.019Z,17.80
2022-10-28T13:38:29.503Z,17.90
2022-10-28T13:43:51.733Z,16.50
2022-10-28T13:49:25.071Z,16.00
2022-10-28T13:54:45.367Z,18.80
2022-10-28T13:59:57.699Z,15.40
2022-10-28T14:05:03.220Z,16.20
2022-10-28T14:10:37.604Z,16.60
2022-10-28T14:15:41.798Z,14.50
2022-10-28T14:20:48.109Z,14.70
2022-10-28T14:25:51.325Z,16.90
2022-10-28T14:31:09.964Z,14.30
2022-10-28T14:36:19.792Z,16.00
2022-10-28T14:41:39.507Z,16.30
2022-10-28T14:46:52.792Z,14.00
2022-10-28T14:51:58.658Z,17.60
2022-10-28T14:57:03.140Z,17.00
2022-10-28T15:02:21.938Z,18.00
2022-10-28T15:07:26.128Z,18.70
2022-10-28T15:12:30.125Z,18.20
2022-10-28T15:32:20.232Z,18.10
2022-10-28T15:37:28.609Z,19.30
2022-10-28T15:43:03.038Z,19.10
2022-10-28T15:48:13.884Z,19.00
2022-10-28T15:53:23.587Z,20.60
2022-10-28T15:58:33.814Z,20.20
2022-10-28T16:03:48.900Z,21.40
2022-10-28T16:09:12.075Z,21.40
2022-10-28T16:14:33.593Z,21.10
2022-10-28T16:19:40.404Z,40.80
2022-10-28T16:24:43.512Z,44.90
2022-10-28T16:34:49.824Z,37.00
2022-10-28T16:39:54.466Z,33.70
2022-10-28T16:44:59.011Z,37.60
2022-10-28T16:50:03.236Z,31.20
2022-10-28T16:55:16.726Z,24.50
2022-10-28T17:00:20.511Z,51.50
2022-10-28T17:05:24.843Z,36.20
2022-10-28T17:10:28.768Z,31.30
2022-10-28T17:15:32.077Z,34.10
2022-10-28T17:20:36.133Z,30.00
2022-10-28T17:30:48.062Z,30.40
2022-10-28T17:35:51.466Z,25.40
2022-10-28T17:40:56.005Z,25.50
2022-10-28T17:46:06.892Z,44.30
2022-10-28T17:51:11.428Z,42.30
2022-10-28T17:56:14.730Z,174.10
2022-10-28T18:01:18.429Z,56.60
2022-10-28T18:06:21.771Z,30.80
2022-10-28T18:11:25.802Z,49.70
2022-10-28T18:16:29.213Z,54.60
2022-10-28T18:21:32.937Z,81.10
2022-10-28T18:26:38.187Z,64.90
2022-10-28T18:31:44.266Z,109.90
2022-10-28T18:36:47.483Z,38.70
2022-10-28T18:41:51.650Z,41.60
2022-10-28T18:46:55.528Z,30.00
2022-10-28T18:52:00.401Z,66.00
2022-10-28T18:57:04.609Z,39.40
2022-10-28T19:02:09.494Z,48.00
2022-10-28T19:07:13.686Z,39.00
2022-10-28T19:12:17.001Z,45.10
2022-10-28T19:17:20.205Z,52.80
2022-10-28T19:27:26.624Z,27.60
2022-10-28T19:32:31.796Z,35.90
2022-10-28T19:37:35.495Z,49.40
2022-10-28T19:42:40.902Z,33.00
2022-10-28T19:47:45.290Z,36.20
2022-10-28T19:52:48.826Z,30.70
2022-10-28T19:57:53.047Z,30.10
2022-10-28T20:02:56.452Z,24.40
2022-10-28T20:08:01.096Z,26.20
2022-10-28T20:13:05.534Z,22.60
2022-10-28T20:18:08.635Z,20.50
2022-10-28T20:33:19.694Z,22.00
2022-10-28T20:38:24.463Z,21.70
2022-10-28T20:43:29.797Z,21.50
2022-10-28T20:48:33.827Z,22.20
2022-10-28T20:53:37.545Z,22.40
2022-10-28T20:58:40.761Z,21.70
2022-10-28T21:08:47.585Z,20.20
2022-10-28T21:13:58.710Z,21.00
2022-10-28T21:19:02.111Z,20.70
2022-10-28T21:24:06.009Z,19.80
2022-10-28T21:29:09.219Z,19.60
2022-10-28T21:34:12.326Z,21.10
2022-10-28T21:44:19.051Z,19.10
2022-10-28T21:49:22.157Z,18.90
2022-10-28T21:59:28.364Z,18.20
2022-10-28T22:04:31.677Z,19.80
2022-10-28T22:09:36.610Z,19.70
2022-10-28T22:14:40.854Z,19.10
2022-10-28T22:24:46.965Z,18.60
2022-10-28T22:34:53.280Z,19.00
2022-10-28T22:44:59.795Z,19.10
2022-10-28T22:50:03.824Z,19.80
2022-10-28T22:55:07.647Z,19.90
2022-10-28T23:00:11.932Z,20.40
2022-10-28T23:05:15.188Z,20.30
2022-10-28T23:10:18.396Z,21.70
2022-10-28T23:15:21.605Z,16.50
2022-10-28T23:20:25.921Z,18.30
2022-10-28T23:25:29.150Z,18.80
2022-10-28T23:30:32.977Z,17.50
2022-10-28T23:35:37.308Z,18.70
2022-10-28T23:40:40.432Z,19.40
2022-10-28T23:50:48.137Z,17.50
2022-10-28T23:55:51.876Z,17.30
